createdAt,value
2023-10-29T00:00:57.068Z,97333.88
2023-10-29T00:03:23.839Z,97324.81
2023-10-29T00:05:50.770Z,97320.78
2023-10-29T00:08:17.412Z,97313.41
2023-10-29T00:10:44.210Z,97318.22
2023-10-29T00:13:11.962Z,97326.00
2023-10-29T00:15:38.669Z,97323.72
2023-10-29T00:18:13.957Z,97327.84
2023-10-29T00:20:41.372Z,97318.81
2023-10-29T00:23:09.909Z,97320.69
2023-10-29T00:25:36.501Z,97317.81
2023-10-29T00:28:03.090Z,97326.09
2023-10-29T00:30:29.614Z,97329.13
2023-10-29T00:32:58.570Z,97333.06
2023-10-29T00:35:25.181Z,97337.97
2023-10-29T00:37:51.824Z,97339.03
2023-10-29T00:40:18.441Z,97335.31
2023-10-29T00:42:45.000Z,97319.38
2023-10-29T00:45:11.616Z,97322.81
2023-10-29T00:47:38.779Z,97344.56
2023-10-29T00:50:05.828Z,97344.56
2023-10-29T00:52:32.897Z,97356.78
2023-10-29T00:54:59.912Z,97369.78
2023-10-29T00:57:27.285Z,97384.44
2023-10-29T00:59:54.692Z,97405.69
2023-10-29T01:02:21.439Z,97415.53
2023-10-29T01:04:48.367Z,97457.00
2023-10-29T01:07:15.762Z,97549.81
2023-10-29T01:09:43.449Z,97554.38
2023-10-29T01:12:20.379Z,97603.63
2023-10-29T01:14:47.548Z,97642.78
2023-10-29T01:17:14.320Z,97680.22
2023-10-29T01:19:40.938Z,97715.44
2023-10-29T01:22:08.049Z,97760.22
2023-10-29T01:24:35.506Z,97789.59
2023-10-29T01:27:04.450Z,97804.94
2023-10-29T01:29:31.492Z,97776.81
2023-10-29T01:31:58.664Z,97749.78
2023-10-29T01:34:25.707Z,97750.03
2023-10-29T01:36:52.228Z,97738.38
2023-10-29T01:39:19.177Z,97722.47
2023-10-29T01:41:45.807Z,97716.97
2023-10-29T01:44:12.446Z,97717.53
2023-10-29T01:46:39.120Z,97739.78
2023-10-29T01:49:08.486Z,97744.25
2023-10-29T01:51:35.117Z,97744.19
2023-10-29T01:54:01.763Z,97738.06
2023-10-29T01:56:28.412Z,97737.81
2023-10-29T01:58:55.010Z,97739.16
2023-10-29T02:01:22.776Z,97743.66
2023-10-29T02:03:49.579Z,97755.06
2023-10-29T02:06:18.445Z,97768.84
2023-10-29T02:08:45.466Z,97801.69
2023-10-29T02:11:12.112Z,97810.41
2023-10-29T02:13:39.138Z,97809.34
2023-10-29T02:16:05.960Z,97804.03
2023-10-29T02:18:32.647Z,97787.25
2023-10-29T02:20:59.391Z,97780.34
2023-10-29T02:23:26.022Z,97782.19
2023-10-29T02:25:52.620Z,97773.44
2023-10-29T02:28:19.304Z,97796.53
2023-10-29T02:30:45.823Z,97800.22
2023-10-29T02:33:12.480Z,97811.06
2023-10-29T02:35:39.107Z,97830.16
2023-10-29T02:38:05.694Z,97829.34
2023-10-29T02:40:32.219Z,97852.41
2023-10-29T02:42:58.762Z,97879.97
2023-10-29T02:45:26.935Z,97889.00
2023-10-29T02:47:55.619Z,97926.97
2023-10-29T02:50:22.180Z,97965.94
2023-10-29T02:52:48.901Z,97987.72
2023-10-29T02:55:15.524Z,98020.34
2023-10-29T02:57:42.242Z,98073.41
2023-10-29T03:00:09.410Z,98090.41
2023-10-29T03:02:36.557Z,98112.72
2023-10-29T03:05:03.599Z,98142.19
2023-10-29T03:07:31.714Z,98158.13
2023-10-29T03:09:58.353Z,98196.03
2023-10-29T03:12:25.046Z,98218.09
2023-10-29T03:14:51.562Z,98237.47
2023-10-29T03:17:18.074Z,98253.66
2023-10-29T03:19:45.683Z,98271.19
2023-10-29T03:22:12.472Z,98310.75
2023-10-29T03:24:40.055Z,98374.75
2023-10-29T03:27:07.156Z,98434.28
2023-10-29T03:29:33.717Z,98475.19
2023-10-29T03:32:00.480Z,98514.25
2023-10-29T03:34:31.368Z,98569.25
2023-10-29T03:36:57.973Z,98616.25
2023-10-29T03:39:24.715Z,98642.25
2023-10-29T03:41:51.245Z,98652.88
2023-10-29T03:44:17.868Z,98649.44
2023-10-29T03:46:50.104Z,98701.88
2023-10-29T03:49:18.050Z,98738.16
2023-10-29T03:51:46.870Z,98759.38
2023-10-29T03:54:13.526Z,98776.63
2023-10-29T03:56:40.648Z,98816.69
2023-10-29T03:59:07.661Z,98836.16
2023-10-29T04:01:34.240Z,98848.13
2023-10-29T04:04:00.912Z,98853.59
2023-10-29T04:06:27.482Z,98872.41
2023-10-29T04:08:54.147Z,98898.69
2023-10-29T04:11:20.758Z,98911.94
2023-10-29T04:13:48.816Z,98939.38
2023-10-29T04:16:15.473Z,98973.41
2023-10-29T04:18:42.051Z,98986.09
2023-10-29T04:21:08.572Z,98996.69
2023-10-29T04:23:36.294Z,99021.69
2023-10-29T04:26:03.099Z,99039.66
2023-10-29T04:28:29.681Z,99044.25
2023-10-29T04:30:57.006Z,99054.38
2023-10-29T04:33:24.579Z,99069.06
2023-10-29T04:35:51.353Z,99086.22
2023-10-29T04:38:17.957Z,99089.69
2023-10-29T04:40:45.629Z,99095.53
2023-10-29T04:43:12.429Z,99110.38
2023-10-29T04:45:38.917Z,99110.78
2023-10-29T04:48:05.795Z,99120.03
2023-10-29T04:50:32.540Z,99136.19
2023-10-29T04:52:59.464Z,99162.41
2023-10-29T04:55:26.102Z,99170.94
2023-10-29T04:57:52.610Z,99175.84
2023-10-29T05:00:19.206Z,99178.19
2023-10-29T05:02:45.845Z,99195.09
2023-10-29T05:05:12.629Z,99204.41
2023-10-29T05:07:39.208Z,99205.69
2023-10-29T05:10:06.700Z,99219.22
2023-10-29T05:12:33.256Z,99222.66
2023-10-29T05:14:59.968Z,99219.47
2023-10-29T05:17:26.536Z,99227.78
2023-10-29T05:19:53.237Z,99246.75
2023-10-29T05:22:19.752Z,99243.66
2023-10-29T05:24:46.409Z,99259.72
2023-10-29T05:27:13.241Z,99260.81
2023-10-29T05:29:39.819Z,99259.00
2023-10-29T05:32:06.951Z,99260.97
2023-10-29T05:34:33.656Z,99264.53
2023-10-29T05:37:00.462Z,99263.97
2023-10-29T05:39:26.959Z,99272.63
2023-10-29T05:41:53.537Z,99262.13
2023-10-29T05:44:20.551Z,99256.16
2023-10-29T05:46:47.104Z,99262.03
2023-10-29T05:49:13.605Z,99258.69
2023-10-29T05:51:40.191Z,99271.13
2023-10-29T05:54:06.918Z,99280.13
2023-10-29T05:56:33.681Z,99278.63
2023-10-29T05:59:00.247Z,99277.47
2023-10-29T06:01:26.827Z,99278.59
2023-10-29T06:03:53.574Z,99274.56
2023-10-29T06:06:20.791Z,99281.00
2023-10-29T06:08:47.366Z,99276.84
2023-10-29T06:11:13.881Z,99290.34
2023-10-29T06:13:40.365Z,99287.09
2023-10-29T06:16:09.233Z,99295.06
2023-10-29T06:18:36.804Z,99293.91
2023-10-29T06:21:04.322Z,99301.66
2023-10-29T06:23:30.951Z,99303.84
2023-10-29T06:25:58.062Z,99294.34
2023-10-29T06:28:24.581Z,99298.31
2023-10-29T06:30:51.340Z,99307.19
2023-10-29T06:33:18.055Z,99311.09
2023-10-29T06:35:45.098Z,99310.75
2023-10-29T06:38:11.826Z,99329.44
2023-10-29T06:40:38.585Z,99334.28
2023-10-29T06:43:05.293Z,99341.75
2023-10-29T06:45:31.969Z,99360.91
2023-10-29T06:47:58.629Z,99362.31
2023-10-29T06:50:25.170Z,99362.19
2023-10-29T06:52:51.692Z,99363.53
2023-10-29T06:55:18.196Z,99364.22
2023-10-29T06:57:44.728Z,99381.66
2023-10-29T07:00:11.826Z,99391.78
2023-10-29T07:02:38.999Z,99390.97
2023-10-29T07:05:06.109Z,99397.88
2023-10-29T07:07:32.734Z,99405.06
2023-10-29T07:09:59.353Z,99420.28
2023-10-29T07:12:25.868Z,99422.44
2023-10-29T07:14:52.442Z,99428.56
2023-10-29T07:17:19.038Z,99442.44
2023-10-29T07:19:46.198Z,99452.34
2023-10-29T07:22:12.942Z,99458.47
2023-10-29T07:24:39.541Z,99460.06
2023-10-29T07:27:06.080Z,99480.03
2023-10-29T07:29:32.984Z,99478.41
2023-10-29T07:31:59.785Z,99485.44
2023-10-29T07:34:26.794Z,99501.84
2023-10-29T07:36:53.343Z,99514.34
2023-10-29T07:39:19.941Z,99509.34
2023-10-29T07:41:46.496Z,99511.69
2023-10-29T07:44:13.053Z,99519.41
2023-10-29T07:46:39.622Z,99513.53
2023-10-29T07:49:06.151Z,99509.03
2023-10-29T07:51:32.765Z,99513.03
2023-10-29T07:54:00.919Z,99517.53
2023-10-29T07:56:27.952Z,99509.03
2023-10-29T07:58:54.823Z,99537.41
2023-10-29T08:01:21.458Z,99544.56
2023-10-29T08:03:49.767Z,99539.72
2023-10-29T08:06:16.507Z,99547.69
2023-10-29T08:08:43.171Z,99537.53
2023-10-29T08:11:20.519Z,99537.66
2023-10-29T08:13:47.758Z,99530.81
2023-10-29T08:16:17.096Z,99552.88
2023-10-29T08:18:43.702Z,99546.06
2023-10-29T08:21:11.154Z,99569.13
2023-10-29T08:23:37.861Z,99584.81
2023-10-29T08:26:04.707Z,99569.81
2023-10-29T08:28:32.168Z,99583.44
2023-10-29T08:30:59.103Z,99578.91
2023-10-29T08:33:27.648Z,99590.38
2023-10-29T08:35:54.500Z,99602.63
2023-10-29T08:38:22.039Z,99606.19
2023-10-29T08:40:48.628Z,99610.91
2023-10-29T08:43:15.163Z,99614.63
2023-10-29T08:45:43.121Z,99615.31
2023-10-29T08:48:11.506Z,99609.19
2023-10-29T08:50:38.359Z,99625.94
2023-10-29T08:53:04.897Z,99618.66
2023-10-29T08:55:31.402Z,99616.56
2023-10-29T08:57:57.969Z,99614.97
2023-10-29T09:00:27.160Z,99620.63
2023-10-29T09:02:57.249Z,99620.41
2023-10-29T09:05:24.101Z,99640.00
2023-10-29T09:07:50.634Z,99617.16
2023-10-29T09:10:17.223Z,99624.78
2023-10-29T09:12:43.846Z,99630.09
2023-10-29T09:15:10.551Z,99627.78
2023-10-29T09:17:37.245Z,99630.22
2023-10-29T09:20:04.970Z,99617.63
2023-10-29T09:22:31.941Z,99630.09
2023-10-29T09:24:58.478Z,99611.72
2023-10-29T09:27:25.377Z,99616.22
2023-10-29T09:29:52.061Z,99611.72
2023-10-29T09:32:18.665Z,99618.75
2023-10-29T09:34:45.162Z,99615.09
2023-10-29T09:37:11.839Z,99603.75
2023-10-29T09:39:38.657Z,99582.63
2023-10-29T09:42:09.688Z,99581.31
2023-10-29T09:44:41.032Z,99564.53
2023-10-29T09:47:18.440Z,99568.09
2023-10-29T09:49:45.652Z,99582.50
2023-10-29T09:52:14.390Z,99584.63
2023-10-29T09:54:41.703Z,99571.59
2023-10-29T09:57:09.005Z,99563.88
2023-10-29T09:59:36.233Z,99557.16
2023-10-29T10:02:04.006Z,99545.91
2023-10-29T10:04:31.100Z,99574.69
2023-10-29T10:07:00.585Z,99604.50
2023-10-29T10:09:27.532Z,99629.88
2023-10-29T10:12:06.608Z,99655.16
2023-10-29T10:14:33.731Z,99661.09
2023-10-29T10:17:10.587Z,99662.22
2023-10-29T10:19:40.833Z,99666.16
2023-10-29T10:22:08.188Z,99672.19
2023-10-29T10:24:46.845Z,99688.06
2023-10-29T10:27:15.293Z,99688.59
2023-10-29T10:29:42.135Z,99687.00
2023-10-29T10:32:09.836Z,99700.53
2023-10-29T10:34:39.145Z,99696.72
2023-10-29T10:37:06.395Z,99690.72
2023-10-29T10:39:35.311Z,99682.25
2023-10-29T10:42:05.236Z,99681.69
2023-10-29T10:44:32.376Z,99671.19
2023-10-29T10:47:01.136Z,99682.63
2023-10-29T10:49:32.306Z,99672.22
2023-10-29T10:52:02.257Z,99667.94
2023-10-29T10:54:30.834Z,99665.75
2023-10-29T10:56:57.931Z,99655.69
2023-10-29T10:59:24.682Z,99633.13
2023-10-29T11:01:51.906Z,99634.78
2023-10-29T11:04:19.027Z,99623.56
2023-10-29T11:06:46.459Z,99602.38
2023-10-29T11:09:15.442Z,99601.75
2023-10-29T11:11:50.899Z,99586.94
2023-10-29T11:14:21.735Z,99600.00
2023-10-29T11:16:59.403Z,99596.53
2023-10-29T11:19:42.775Z,99600.72
2023-10-29T11:22:30.282Z,99604.81
2023-10-29T11:25:05.898Z,99620.66
2023-10-29T11:27:40.387Z,99613.41
2023-10-29T11:30:22.632Z,99614.03
2023-10-29T11:33:08.019Z,99613.84
2023-10-29T11:35:35.381Z,99608.28
2023-10-29T11:38:23.321Z,99597.09
2023-10-29T11:40:51.004Z,99595.75
2023-10-29T11:43:20.089Z,99573.53
2023-10-29T11:46:12.861Z,99569.81
2023-10-29T11:49:03.965Z,99557.44
2023-10-29T11:51:30.604Z,99557.63
2023-10-29T11:54:03.362Z,99552.38
2023-10-29T11:56:33.084Z,99555.84
2023-10-29T11:59:03.915Z,99551.69
2023-10-29T12:01:30.575Z,99557.38
2023-10-29T12:03:57.332Z,99552.06
2023-10-29T12:06:49.155Z,99565.16
2023-10-29T12:09:20.703Z,99555.59
2023-10-29T12:11:47.802Z,99556.28
2023-10-29T12:14:14.481Z,99559.81
2023-10-29T12:16:41.438Z,99561.28
2023-10-29T12:19:08.030Z,99560.97
2023-10-29T12:21:35.177Z,99565.97
2023-10-29T12:24:03.703Z,99544.84
2023-10-29T12:26:30.572Z,99554.44
2023-10-29T12:28:57.713Z,99569.06
2023-10-29T12:31:28.374Z,99572.00
2023-10-29T12:33:59.476Z,99571.88
2023-10-29T12:36:27.566Z,99568.97
2023-10-29T12:38:54.854Z,99558.47
2023-10-29T12:41:23.224Z,99560.56
2023-10-29T12:43:53.772Z,99567.06
2023-10-29T12:46:27.206Z,99591.72
2023-10-29T12:49:01.519Z,99584.72
2023-10-29T12:51:35.525Z,99587.19
2023-10-29T12:54:24.567Z,99578.63
2023-10-29T12:56:57.525Z,99575.69
2023-10-29T12:59:32.782Z,99564.63
2023-10-29T13:02:01.409Z,99566.28
2023-10-29T13:04:28.950Z,99567.84
2023-10-29T13:06:57.225Z,99574.53
2023-10-29T13:09:26.735Z,99569.34
2023-10-29T13:11:53.875Z,99564.41
2023-10-29T13:14:21.226Z,99546.28
2023-10-29T13:16:47.806Z,99529.66
2023-10-29T13:19:14.518Z,99511.78
2023-10-29T13:21:42.003Z,99490.66
2023-10-29T13:24:09.514Z,99463.88
2023-10-29T13:26:36.880Z,99433.50
2023-10-29T13:29:03.604Z,99416.31
2023-10-29T13:31:30.353Z,99387.66
2023-10-29T13:33:59.008Z,99352.22
2023-10-29T13:36:29.414Z,99332.91
2023-10-29T13:38:56.113Z,99325.19
2023-10-29T13:41:24.168Z,99296.00
2023-10-29T13:43:50.853Z,99280.81
2023-10-29T13:46:17.840Z,99277.09
2023-10-29T13:48:44.526Z,99277.09
2023-10-29T13:51:11.755Z,99256.09
2023-10-29T13:53:39.086Z,99241.75
2023-10-29T13:56:13.082Z,99234.50
2023-10-29T13:58:40.545Z,99217.50
2023-10-29T14:01:28.174Z,99216.22
2023-10-29T14:03:57.126Z,99232.03
2023-10-29T14:06:24.138Z,99233.31
2023-10-29T14:08:51.179Z,99226.38
2023-10-29T14:11:18.244Z,99225.28
2023-10-29T14:13:46.909Z,99215.50
2023-10-29T14:16:15.389Z,99227.78
2023-10-29T14:18:43.643Z,99224.63
2023-10-29T14:21:11.079Z,99218.50
2023-10-29T14:23:37.708Z,99204.88
2023-10-29T14:26:04.373Z,99210.28
2023-10-29T14:28:30.888Z,99199.56
2023-10-29T14:30:57.673Z,99206.75
2023-10-29T14:33:26.969Z,99204.75
2023-10-29T14:35:57.951Z,99200.09
2023-10-29T14:38:24.827Z,99193.41
2023-10-29T14:40:54.878Z,99199.44
2023-10-29T14:43:23.208Z,99199.50
2023-10-29T14:45:54.430Z,99199.63
2023-10-29T14:48:21.685Z,99224.00
2023-10-29T14:50:49.459Z,99231.06
2023-10-29T14:53:16.320Z,99256.66
2023-10-29T14:55:47.259Z,99254.72
2023-10-29T14:58:14.462Z,99253.69
2023-10-29T15:00:45.079Z,99266.25
2023-10-29T15:03:12.631Z,99268.91
2023-10-29T15:05:39.778Z,99287.22
2023-10-29T15:08:06.360Z,99293.25
2023-10-29T15:10:33.798Z,99305.84
2023-10-29T15:13:00.374Z,99313.22
2023-10-29T15:15:30.237Z,99316.66
2023-10-29T15:17:57.791Z,99322.50
2023-10-29T15:20:24.839Z,99325.91
2023-10-29T15:22:51.432Z,99343.69
2023-10-29T15:25:18.390Z,99339.94
2023-10-29T15:27:44.968Z,99349.03
2023-10-29T15:30:12.140Z,99347.59
2023-10-29T15:32:39.040Z,99352.78
2023-10-29T15:35:05.986Z,99362.47
2023-10-29T15:37:32.600Z,99384.72
2023-10-29T15:39:59.679Z,99406.38
2023-10-29T15:42:26.935Z,99416.25
2023-10-29T15:44:53.726Z,99379.41
2023-10-29T15:47:23.807Z,99395.88
2023-10-29T15:49:53.512Z,99404.38
2023-10-29T15:52:20.798Z,99414.91
2023-10-29T15:54:47.799Z,99423.09
2023-10-29T15:57:15.743Z,99431.50
2023-10-29T15:59:42.877Z,99418.00
2023-10-29T16:02:09.800Z,99420.53
2023-10-29T16:04:36.483Z,99408.53
2023-10-29T16:07:04.461Z,99394.44
2023-10-29T16:09:31.887Z,99381.19
2023-10-29T16:12:00.051Z,99378.09
2023-10-29T16:14:26.615Z,99370.28
2023-10-29T16:16:53.402Z,99368.28
2023-10-29T16:19:19.966Z,99356.19
2023-10-29T16:21:46.832Z,99350.44
2023-10-29T16:24:14.624Z,99362.75
2023-10-29T16:26:41.973Z,99338.66
2023-10-29T16:29:18.893Z,99329.22
2023-10-29T16:31:45.419Z,99337.31
2023-10-29T16:34:12.308Z,99363.22
2023-10-29T16:36:39.041Z,99378.31
2023-10-29T16:39:06.837Z,99380.72
2023-10-29T16:41:33.641Z,99383.19
2023-10-29T16:44:02.134Z,99407.56
2023-10-29T16:46:31.051Z,99392.00
2023-10-29T16:48:58.891Z,99410.53
2023-10-29T16:51:26.964Z,99433.69
2023-10-29T16:53:53.925Z,99432.13
2023-10-29T16:56:20.544Z,99448.16
2023-10-29T16:58:47.608Z,99442.13
2023-10-29T17:01:14.723Z,99438.75
2023-10-29T17:03:41.853Z,99436.97
2023-10-29T17:06:08.999Z,99446.56
2023-10-29T17:08:35.666Z,99463.44
2023-10-29T17:11:02.379Z,99472.03
2023-10-29T17:13:28.969Z,99472.47
2023-10-29T17:16:03.501Z,99481.00
2023-10-29T17:18:30.527Z,99503.78
2023-10-29T17:21:00.310Z,99498.66
2023-10-29T17:23:27.403Z,99507.09
2023-10-29T17:25:54.097Z,99512.31
2023-10-29T17:28:20.651Z,99518.56
2023-10-29T17:30:47.314Z,99532.31
2023-10-29T17:33:14.301Z,99539.81
2023-10-29T17:35:41.662Z,99551.16
2023-10-29T17:38:08.383Z,99570.06
2023-10-29T17:40:36.220Z,99584.75
2023-10-29T17:43:02.837Z,99594.03
2023-10-29T17:45:29.569Z,99610.00
2023-10-29T17:47:58.181Z,99610.44
2023-10-29T17:50:24.966Z,99627.66
2023-10-29T17:52:51.652Z,99640.09
2023-10-29T17:55:18.303Z,99638.25
2023-10-29T17:57:46.515Z,99646.00
2023-10-29T18:00:15.398Z,99656.75
2023-10-29T18:02:43.174Z,99654.22
2023-10-29T18:05:12.926Z,99671.03
2023-10-29T18:07:39.539Z,99673.31
2023-10-29T18:10:07.188Z,99680.28
2023-10-29T18:12:33.992Z,99684.97
2023-10-29T18:15:00.918Z,99680.50
2023-10-29T18:17:27.654Z,99691.47
2023-10-29T18:19:54.261Z,99696.41
2023-10-29T18:22:22.144Z,99696.03
2023-10-29T18:24:50.205Z,99708.47
2023-10-29T18:27:17.204Z,99708.09
2023-10-29T18:29:44.352Z,99710.38
2023-10-29T18:32:11.358Z,99719.13
2023-10-29T18:34:38.784Z,99716.47
2023-10-29T18:37:05.587Z,99719.19
2023-10-29T18:39:32.433Z,99722.00
2023-10-29T18:41:59.893Z,99724.38
2023-10-29T18:44:31.402Z,99725.38
2023-10-29T18:47:02.015Z,99734.53
2023-10-29T18:49:29.768Z,99736.13
2023-10-29T18:51:57.484Z,99746.66
2023-10-29T18:54:25.194Z,99755.38
2023-10-29T18:56:52.201Z,99761.28
2023-10-29T18:59:18.974Z,99766.72
2023-10-29T19:01:45.718Z,99775.28
2023-10-29T19:04:12.484Z,99786.03
2023-10-29T19:06:39.335Z,99800.50
2023-10-29T19:09:06.231Z,99817.84
2023-10-29T19:11:36.584Z,99820.91
2023-10-29T19:14:03.770Z,99828.22
2023-10-29T19:16:31.208Z,99826.34
2023-10-29T19:18:58.296Z,99827.63
2023-10-29T19:21:24.887Z,99823.16
2023-10-29T19:23:51.483Z,99836.63
2023-10-29T19:26:18.005Z,99841.78
2023-10-29T19:28:45.328Z,99845.47
2023-10-29T19:31:25.064Z,99841.63
2023-10-29T19:33:54.992Z,99840.84
2023-10-29T19:36:21.819Z,99841.25
2023-10-29T19:38:48.384Z,99847.78
2023-10-29T19:41:15.088Z,99860.44
2023-10-29T19:43:41.619Z,99876.94
2023-10-29T19:46:08.261Z,99882.25
2023-10-29T19:48:35.166Z,99891.97
2023-10-29T19:51:06.313Z,99898.47
2023-10-29T19:53:34.293Z,99896.63
2023-10-29T19:56:01.321Z,99900.91
2023-10-29T19:58:27.971Z,99897.81
2023-10-29T20:01:05.319Z,99904.75
2023-10-29T20:03:33.591Z,99926.75
2023-10-29T20:06:09.343Z,99953.63
2023-10-29T20:08:36.990Z,99936.34
2023-10-29T20:11:10.811Z,99936.78
2023-10-29T20:13:38.510Z,99934.66
2023-10-29T20:16:06.874Z,99921.38
2023-10-29T20:18:35.127Z,99937.19
2023-10-29T20:21:02.210Z,99937.84
2023-10-29T20:23:29.495Z,99933.44
2023-10-29T20:25:57.275Z,99913.72
2023-10-29T20:28:25.420Z,99930.44
2023-10-29T20:30:51.958Z,99925.56
2023-10-29T20:33:18.764Z,99913.59
2023-10-29T20:35:45.607Z,99906.66
2023-10-29T20:38:12.210Z,99915.00
2023-10-29T20:40:38.861Z,99904.44
2023-10-29T20:43:05.555Z,99907.91
2023-10-29T20:45:32.219Z,99887.16
2023-10-29T20:47:59.029Z,99871.47
2023-10-29T20:50:26.013Z,99851.91
2023-10-29T20:52:52.655Z,99837.47
2023-10-29T20:55:20.944Z,99823.84
2023-10-29T20:57:47.442Z,99808.56
2023-10-29T21:00:15.241Z,99789.41
2023-10-29T21:02:41.946Z,99766.22
2023-10-29T21:05:08.751Z,99751.78
2023-10-29T21:07:35.269Z,99736.78
2023-10-29T21:10:01.827Z,99722.34
2023-10-29T21:12:28.384Z,99713.00
2023-10-29T21:14:55.151Z,99705.69
2023-10-29T21:17:22.505Z,99706.75
2023-10-29T21:19:49.204Z,99701.50
2023-10-29T21:22:15.929Z,99692.59
2023-10-29T21:24:46.456Z,99686.31
2023-10-29T21:27:13.073Z,99668.66
2023-10-29T21:29:39.701Z,99662.19
2023-10-29T21:32:06.202Z,99630.66
2023-10-29T21:34:32.704Z,99620.91
2023-10-29T21:36:59.432Z,99606.69
2023-10-29T21:39:26.021Z,99608.13
2023-10-29T21:41:52.622Z,99592.47
2023-10-29T21:44:19.226Z,99585.78
2023-10-29T21:46:46.917Z,99575.22
2023-10-29T21:49:14.185Z,99565.47
2023-10-29T21:51:40.741Z,99562.81
2023-10-29T21:54:07.484Z,99547.34
2023-10-29T21:56:34.087Z,99535.19
2023-10-29T21:59:00.868Z,99529.03
2023-10-29T22:01:27.498Z,99521.88
2023-10-29T22:03:54.465Z,99514.94
2023-10-29T22:06:22.192Z,99509.84
2023-10-29T22:08:48.747Z,99495.78
2023-10-29T22:11:15.491Z,99484.72
2023-10-29T22:13:42.158Z,99476.94
2023-10-29T22:16:10.787Z,99471.22
2023-10-29T22:18:37.989Z,99448.47
2023-10-29T22:21:05.152Z,99448.03
2023-10-29T22:23:32.191Z,99433.53
2023-10-29T22:25:59.130Z,99428.47
2023-10-29T22:28:26.125Z,99429.22
2023-10-29T22:30:53.419Z,99422.72
2023-10-29T22:33:20.012Z,99425.91
2023-10-29T22:35:46.596Z,99436.25
2023-10-29T22:38:13.198Z,99450.41
2023-10-29T22:40:39.807Z,99476.25
2023-10-29T22:43:06.333Z,99504.63
2023-10-29T22:45:32.981Z,99550.63
2023-10-29T22:47:59.654Z,99587.72
2023-10-29T22:50:26.275Z,99614.19
2023-10-29T22:52:52.848Z,99622.38
2023-10-29T22:55:19.776Z,99638.28
2023-10-29T22:57:49.557Z,99653.16
2023-10-29T23:00:16.745Z,99669.19
2023-10-29T23:02:43.388Z,99672.44
2023-10-29T23:05:10.002Z,99682.63
2023-10-29T23:07:36.612Z,99698.66
2023-10-29T23:10:03.459Z,99702.50
2023-10-29T23:12:30.042Z,99724.25
2023-10-29T23:14:56.568Z,99746.00
2023-10-29T23:17:23.117Z,99749.66
2023-10-29T23:19:49.973Z,99759.81
2023-10-29T23:22:19.022Z,99756.91
2023-10-29T23:24:45.586Z,99762.38
2023-10-29T23:27:12.540Z,99775.56
2023-10-29T23:29:39.062Z,99781.03
2023-10-29T23:32:06.514Z,99789.97
2023-10-29T23:34:33.153Z,99789.31
2023-10-29T23:36:59.741Z,99777.72
2023-10-29T23:39:26.277Z,99789.56
2023-10-29T23:41:52.842Z,99811.72
2023-10-29T23:44:19.391Z,99804.41
2023-10-29T23:46:45.939Z,99819.50
2023-10-29T23:49:12.525Z,99828.81
2023-10-29T23:51:39.053Z,99832.06
2023-10-29T23:54:05.709Z,99842.25
2023-10-29T23:56:32.338Z,99849.81
2023-10-29T23:58:59.034Z,99861.00
